Grandville, MI (49468)

3:21 PM EST on February 21, 2017 (GMT -0500)
Downtown | | Change Station

Elev 628 ft 42.91 °N, 85.76 °W | Updated 12 minutes ago

Mostly Cloudy
Mostly Cloudy
57.5 °F
Feels Like 57.5 °F
N
2.0
Wind Variable Wind from West
Gusts 6.0 mph

Today
High -- | Low -- °F
--% Chance of Precip.
Yesterday
High -- | Low -- °F
Precip. -- in
Pressure 29.90 in
Visibility 4.0 miles
Clouds Overcast 1000 ft
Dew Point 53 °F
Humidity 85%
Rainfall 0.07 in
Snow Depth Not available.
7:31 AM 6:22 PM
Waning Crescent, 23% visible
SPECI KGRR 212014Z 25007KT 4SM HZ OVC010 13/10 A2990 RMK AO2 T01280100
Pressure 29.90 in
Visibility 4.0 miles
Clouds Overcast 1000 ft
Dew Point 53 °F
Humidity 85%
Rainfall 0.07 in
Snow Depth Not available.
7:31 AM 6:22 PM
Waning Crescent, 23% visible
SPECI KGRR 212014Z 25007KT 4SM HZ OVC010 13/10 A2990 RMK AO2 T01280100

Get Your Daily Forecast Email!

Thanks for signing up!

Be on the lookout for a verification email in your inbox.

You'll start receiving the daily forecast at 8 AM.

×

10-Day Weather Forecast

Almanac

Astronomy

Feb. 21, 2017 Rise Set
Actual Time
Civil Twilight
Nautical Twilight
Astronomical Twilight
Moon
Length of Visible Light
Length of Day
Tomorrow will be .
, % of the Moon is Illuminated

Today's Extremes

State Highs State Lows

Community

WunderPhotos

Upload Photos

1,962,540 photos uploaded!

WunderBlog® & News

Nearby

Air Quality

  Air Quality AQ Index Pollutant
Not available.

Snow Depth

Station Depth Elevation

Earthquake Activity

City Distance Mag. Time & Date
Minimum magnitude displayed is 2.5.

Coastal Water Temperatures

Place Temperature

Stations

Nearby Weather Stations

Station Location Temp. Windchill Dew Point Humidity Wind Precip. Elev Updated Type
                   

Watches & Warnings

There are currently no watches in effect.